createdAt,value
2022-09-13T00:00:38.359Z,1.2
2022-09-13T00:01:47.169Z,1.1
2022-09-13T00:02:54.828Z,1
2022-09-13T00:04:04.510Z,0.9
2022-09-13T00:05:12.182Z,1.1
2022-09-13T00:06:20.883Z,0.9
2022-09-13T00:07:30.607Z,1.1
2022-09-13T00:08:40.284Z,0.8
2022-09-13T00:09:48.944Z,0.9
2022-09-13T00:10:57.687Z,0.9
2022-09-13T00:12:06.359Z,0.9
2022-09-13T00:13:16.107Z,0.8
2022-09-13T00:14:24.773Z,0.8
2022-09-13T00:15:33.468Z,0.8
2022-09-13T00:16:43.174Z,0.7
2022-09-13T00:17:50.838Z,0.7
2022-09-13T00:19:00.566Z,0.6
2022-09-13T00:20:10.265Z,0.7
2022-09-13T00:21:17.932Z,0.9
2022-09-13T00:22:27.663Z,0.6
2022-09-13T00:23:36.321Z,0.8
2022-09-13T00:24:45.013Z,0.7
2022-09-13T00:25:54.689Z,0.9
2022-09-13T00:27:04.378Z,0.5
2022-09-13T00:28:14.083Z,0.7
2022-09-13T00:29:22.759Z,0.8
2022-09-13T00:30:31.471Z,0.7
2022-09-13T00:31:41.248Z,0.6
2022-09-13T00:32:49.857Z,0.7
2022-09-13T00:33:59.589Z,0.6
2022-09-13T00:35:09.297Z,0.6
2022-09-13T00:36:18.004Z,0.6
2022-09-13T00:37:27.688Z,0.7
2022-09-13T00:38:37.484Z,0.6
2022-09-13T00:39:49.734Z,0.8
2022-09-13T00:40:57.733Z,0.7
2022-09-13T00:42:05.477Z,0.9
2022-09-13T00:43:14.150Z,0.8
2022-09-13T00:44:23.838Z,0.9
2022-09-13T00:45:31.560Z,0.8
2022-09-13T00:46:41.189Z,0.7
2022-09-13T00:47:50.007Z,0.7
2022-09-13T00:48:57.687Z,0.7
2022-09-13T00:50:07.397Z,0.7
2022-09-13T00:51:15.069Z,0.6
2022-09-13T00:52:24.750Z,0.9
2022-09-13T00:53:34.480Z,0.7
2022-09-13T00:54:42.178Z,0.8
2022-09-13T00:55:51.837Z,0.8
2022-09-13T00:57:01.520Z,1
2022-09-13T00:58:10.225Z,0.7
2022-09-13T00:59:19.928Z,0.7
2022-09-13T01:00:28.621Z,0.8
2022-09-13T01:01:37.298Z,0.9
2022-09-13T01:02:45.968Z,0.7
2022-09-13T01:03:54.643Z,0.7
2022-09-13T01:05:04.402Z,0.9
2022-09-13T01:06:12.079Z,0.7
2022-09-13T01:07:21.787Z,0.7
2022-09-13T01:08:31.461Z,0.7
2022-09-13T01:09:39.137Z,0.9
2022-09-13T01:10:48.879Z,0.7
2022-09-13T01:11:57.588Z,0.8
2022-09-13T01:13:07.264Z,0.7
2022-09-13T01:14:16.920Z,0.9
2022-09-13T01:15:24.597Z,1
2022-09-13T01:16:34.438Z,1
2022-09-13T01:17:44.116Z,1
2022-09-13T01:18:52.769Z,1
2022-09-13T01:20:02.466Z,1
2022-09-13T01:21:12.179Z,0.8
2022-09-13T01:22:20.998Z,1
2022-09-13T01:23:30.656Z,1.2
2022-09-13T01:24:39.359Z,1
2022-09-13T01:25:49.065Z,0.9
2022-09-13T01:26:56.742Z,1.1
2022-09-13T01:28:05.413Z,1
2022-09-13T01:29:15.098Z,0.9
2022-09-13T01:30:24.775Z,1
2022-09-13T01:31:33.552Z,1
2022-09-13T01:32:43.181Z,1
2022-09-13T01:33:51.881Z,0.9
2022-09-13T01:35:01.559Z,1
2022-09-13T01:36:10.249Z,1.1
2022-09-13T01:37:17.954Z,1
2022-09-13T01:38:26.654Z,1
2022-09-13T01:39:34.359Z,0.8
2022-09-13T01:40:43.051Z,0.8
2022-09-13T01:41:52.743Z,0.9
2022-09-13T01:43:00.479Z,1
2022-09-13T01:44:10.073Z,1
2022-09-13T01:45:18.778Z,1.1
2022-09-13T01:46:26.450Z,1
2022-09-13T01:47:36.149Z,0.8
2022-09-13T01:48:43.807Z,1.1
2022-09-13T01:49:52.483Z,0.9
2022-09-13T01:51:02.225Z,0.9
2022-09-13T01:52:09.890Z,0.8
2022-09-13T01:53:19.568Z,0.9
2022-09-13T01:56:04.649Z,0.8
2022-09-13T01:57:14.400Z,0.9
2022-09-13T01:58:24.218Z,0.9
2022-09-13T01:59:33.966Z,0.8
2022-09-13T02:00:43.710Z,0.9
2022-09-13T02:01:52.619Z,0.8
2022-09-13T02:03:02.403Z,0.8
2022-09-13T02:04:12.195Z,0.7
2022-09-13T02:05:20.988Z,0.8
2022-09-13T02:06:30.771Z,0.8
2022-09-13T02:07:40.603Z,0.9
2022-09-13T02:08:49.341Z,1
2022-09-13T02:09:59.051Z,0.7
2022-09-13T02:11:07.795Z,1
2022-09-13T02:12:16.550Z,0.8
2022-09-13T02:13:26.401Z,1
2022-09-13T02:14:35.148Z,1
2022-09-13T02:15:44.875Z,0.8
2022-09-13T02:16:53.815Z,0.8
2022-09-13T02:18:02.545Z,1
2022-09-13T02:19:12.483Z,1.2
2022-09-13T02:20:20.290Z,0.9
2022-09-13T02:21:29.030Z,1.1
2022-09-13T02:22:38.748Z,1.1
2022-09-13T02:23:46.495Z,1.1
2022-09-13T02:24:56.382Z,0.9
2022-09-13T02:26:04.135Z,0.9
2022-09-13T02:27:12.853Z,1.1
2022-09-13T02:28:22.628Z,0.7
2022-09-13T02:29:31.365Z,0.8
2022-09-13T02:30:40.127Z,0.8
2022-09-13T02:31:49.925Z,0.8
2022-09-13T02:32:58.561Z,0.7
2022-09-13T02:34:08.273Z,1
2022-09-13T02:35:17.044Z,0.9
2022-09-13T02:36:24.837Z,1.2
2022-09-13T02:37:34.587Z,1.1
2022-09-13T02:38:44.369Z,0.9
2022-09-13T02:39:54.180Z,1
2022-09-13T02:41:03.864Z,0.9
2022-09-13T02:42:13.587Z,1
2022-09-13T02:43:23.385Z,0.9
2022-09-13T02:44:33.181Z,1.1
2022-09-13T02:45:40.888Z,1.1
2022-09-13T02:46:50.571Z,1.1
2022-09-13T02:47:59.503Z,1.1
2022-09-13T02:49:08.211Z,1.2
2022-09-13T02:50:17.916Z,1.1
2022-09-13T02:51:25.600Z,1.1
2022-09-13T02:52:34.344Z,1.2
2022-09-13T02:53:43.130Z,1
2022-09-13T02:54:52.839Z,1
2022-09-13T02:56:02.563Z,1.2
2022-09-13T02:57:13.280Z,0.9
2022-09-13T02:58:26.953Z,1.1
2022-09-13T02:59:32.767Z,1.1
2022-09-13T03:00:42.570Z,1
2022-09-13T03:01:52.264Z,1
2022-09-13T03:02:59.932Z,1
2022-09-13T03:04:09.618Z,1.1
2022-09-13T03:05:18.343Z,1
2022-09-13T03:06:26.069Z,0.7
2022-09-13T03:07:35.805Z,0.8
2022-09-13T03:08:43.557Z,0.9
2022-09-13T03:09:52.331Z,1
2022-09-13T03:11:02.073Z,0.9
2022-09-13T03:12:11.780Z,1.1
2022-09-13T03:13:21.503Z,0.8
2022-09-13T03:14:30.284Z,0.7
2022-09-13T03:15:40.008Z,1
2022-09-13T03:16:49.866Z,0.8
2022-09-13T03:17:59.513Z,0.8
2022-09-13T03:19:09.235Z,0.7
2022-09-13T03:20:19.028Z,0.9
2022-09-13T03:21:25.697Z,0.7
2022-09-13T03:22:35.464Z,0.6
2022-09-13T03:23:44.187Z,0.9
2022-09-13T03:24:52.888Z,1.1
2022-09-13T03:26:02.667Z,0.9
2022-09-13T03:27:11.346Z,0.8
2022-09-13T03:28:21.309Z,0.7
2022-09-13T03:29:31.049Z,0.6
2022-09-13T03:30:41.786Z,0.7
2022-09-13T03:31:51.723Z,0.6
2022-09-13T03:33:00.560Z,0.8
2022-09-13T03:34:09.257Z,0.8
2022-09-13T03:35:18.994Z,0.9
2022-09-13T03:36:27.748Z,0.6
2022-09-13T03:37:37.932Z,0.7
2022-09-13T03:38:47.791Z,0.6
2022-09-13T03:39:55.533Z,1
2022-09-13T03:41:05.291Z,1.2
2022-09-13T03:42:15.040Z,1.3
2022-09-13T03:43:23.726Z,1.3
2022-09-13T03:44:33.542Z,1.2
2022-09-13T03:45:42.438Z,1.4
2022-09-13T03:46:51.163Z,1.3
2022-09-13T03:48:00.856Z,1.2
2022-09-13T03:49:09.633Z,1.3
2022-09-13T03:50:20.595Z,1.5
2022-09-13T03:51:30.382Z,1.4
2022-09-13T03:52:38.074Z,1.2
2022-09-13T03:53:47.843Z,1.8
2022-09-13T03:54:56.592Z,2
2022-09-13T03:56:05.281Z,2.1
2022-09-13T03:57:15.299Z,2
2022-09-13T03:58:23.996Z,2.2
2022-09-13T03:59:33.728Z,2.1
2022-09-13T04:00:43.621Z,2
2022-09-13T04:01:50.617Z,2.4
2022-09-13T04:03:00.449Z,2
2022-09-13T04:04:10.251Z,1.7
2022-09-13T04:05:19.060Z,2.1
2022-09-13T04:06:28.689Z,2.2
2022-09-13T04:07:37.429Z,1.2
2022-09-13T04:08:46.290Z,0.6
2022-09-13T04:09:56.032Z,0.7
2022-09-13T04:11:03.814Z,1
2022-09-13T04:12:13.854Z,0.7
2022-09-13T04:13:22.601Z,0.7
2022-09-13T04:14:32.427Z,0.8
2022-09-13T04:15:42.185Z,0.7
2022-09-13T04:16:51.913Z,0.8
2022-09-13T04:18:01.843Z,0.6
2022-09-13T04:19:11.563Z,0.7
2022-09-13T04:20:20.284Z,0.7
2022-09-13T04:21:30.129Z,0.9
2022-09-13T04:22:38.749Z,0.8
2022-09-13T04:23:48.467Z,0.6
2022-09-13T04:25:02.101Z,0.9
2022-09-13T04:26:07.928Z,0.7
2022-09-13T04:27:17.682Z,0.9
2022-09-13T04:28:27.381Z,0.7
2022-09-13T04:29:36.121Z,1
2022-09-13T04:30:46.256Z,0.8
2022-09-13T04:31:56.104Z,0.8
2022-09-13T04:33:05.706Z,0.7
2022-09-13T04:34:15.451Z,0.6
2022-09-13T04:35:25.170Z,0.5
2022-09-13T04:36:34.939Z,0.5
2022-09-13T04:37:44.749Z,0.6
2022-09-13T04:38:53.458Z,0.6
2022-09-13T04:40:02.232Z,0.5
2022-09-13T04:41:11.905Z,0.5
2022-09-13T04:42:21.602Z,0.9
2022-09-13T04:43:30.444Z,1
2022-09-13T04:44:39.266Z,0.7
2022-09-13T04:45:49.012Z,0.7
2022-09-13T04:46:58.746Z,0.7
2022-09-13T04:48:07.554Z,0.7
2022-09-13T04:49:17.299Z,0.5
2022-09-13T04:50:25.001Z,0.8
2022-09-13T04:51:33.769Z,0.8
2022-09-13T04:52:43.602Z,0.7
2022-09-13T04:53:51.198Z,0.6
2022-09-13T04:55:00.949Z,0.6
2022-09-13T04:56:10.673Z,0.7
2022-09-13T04:57:20.377Z,0.5
2022-09-13T04:58:30.158Z,0.7
2022-09-13T04:59:37.898Z,0.8
2022-09-13T05:00:47.860Z,0.6
2022-09-13T05:01:56.619Z,0.6
2022-09-13T05:03:05.387Z,0.8
2022-09-13T05:04:16.124Z,0.6
2022-09-13T05:05:24.820Z,0.6
2022-09-13T05:06:35.796Z,0.6
2022-09-13T05:07:45.527Z,0.8
2022-09-13T05:08:55.290Z,0.7
2022-09-13T05:10:05.019Z,0.6
2022-09-13T05:11:13.712Z,0.6
2022-09-13T05:12:22.574Z,0.8
2022-09-13T05:13:32.282Z,0.6
2022-09-13T05:14:40.982Z,0.7
2022-09-13T05:15:50.788Z,0.6
2022-09-13T05:17:00.448Z,0.5
2022-09-13T05:18:10.325Z,0.5
2022-09-13T05:19:20.030Z,0.7
2022-09-13T05:20:28.760Z,0.5
2022-09-13T05:21:37.487Z,0.6
2022-09-13T05:22:47.263Z,0.7
2022-09-13T05:23:55.982Z,0.6
2022-09-13T05:25:05.794Z,0.6
2022-09-13T05:26:14.540Z,0.9
2022-09-13T05:27:23.301Z,0.9
2022-09-13T05:28:32.981Z,0.8
2022-09-13T05:29:42.774Z,0.8
2022-09-13T05:30:51.524Z,0.7
2022-09-13T05:32:01.229Z,0.8
2022-09-13T05:33:10.023Z,0.6
2022-09-13T05:34:19.773Z,1.4
2022-09-13T05:35:28.525Z,1.1
2022-09-13T05:36:37.389Z,1.2
2022-09-13T05:37:47.042Z,1.5
2022-09-13T05:39:12.504Z,1.5
2022-09-13T05:40:13.745Z,1.3
2022-09-13T05:41:17.370Z,1.1
2022-09-13T05:42:27.053Z,0.8
2022-09-13T05:43:36.903Z,0.8
2022-09-13T05:44:46.619Z,0.6
2022-09-13T05:45:55.440Z,0.6
2022-09-13T05:47:05.196Z,0.9
2022-09-13T05:48:14.956Z,0.8
2022-09-13T05:49:24.686Z,0.9
2022-09-13T05:50:57.119Z,1
2022-09-13T05:51:44.124Z,1
2022-09-13T05:52:53.896Z,1.3
2022-09-13T05:54:03.895Z,1.1
2022-09-13T05:55:12.641Z,0.8
2022-09-13T05:56:22.441Z,0.8
2022-09-13T05:57:30.163Z,0.6
2022-09-13T05:58:39.889Z,0.7
2022-09-13T05:59:49.638Z,0.5
2022-09-13T06:00:57.338Z,0.8
2022-09-13T06:02:07.121Z,0.6
2022-09-13T06:03:15.739Z,0.7
2022-09-13T06:04:23.647Z,0.8
2022-09-13T06:05:33.445Z,0.7
2022-09-13T06:06:43.175Z,0.6
2022-09-13T06:07:52.922Z,0.8
2022-09-13T06:09:02.666Z,0.6
2022-09-13T06:10:12.698Z,1.2
2022-09-13T06:11:22.395Z,0.8
2022-09-13T06:12:32.280Z,1
2022-09-13T06:13:40.881Z,1
2022-09-13T06:14:50.666Z,0.6
2022-09-13T06:15:59.610Z,0.8
2022-09-13T06:17:09.421Z,0.6
2022-09-13T06:18:19.197Z,0.7
2022-09-13T06:19:26.983Z,0.5
2022-09-13T06:20:36.673Z,0.6
2022-09-13T06:21:45.395Z,0.4
2022-09-13T06:22:55.141Z,0.5
2022-09-13T06:24:04.842Z,0.9
2022-09-13T06:25:13.526Z,0.6
2022-09-13T06:26:21.211Z,0.4
2022-09-13T06:27:30.999Z,0.5
2022-09-13T06:28:40.884Z,0.5
2022-09-13T06:29:51.107Z,0.3
2022-09-13T06:31:00.897Z,0.4
2022-09-13T06:32:09.582Z,1
2022-09-13T06:33:19.414Z,0.7
2022-09-13T06:34:31.218Z,0.6
2022-09-13T06:35:38.928Z,0.3
2022-09-13T06:36:47.604Z,0.5
2022-09-13T06:37:56.312Z,0.5
2022-09-13T06:39:05.180Z,0.4
2022-09-13T06:40:14.886Z,0.4
2022-09-13T06:41:24.584Z,0.8
2022-09-13T06:42:34.284Z,0.5
2022-09-13T06:43:42.968Z,0.5
2022-09-13T06:44:52.724Z,1
2022-09-13T06:46:02.459Z,0.9
2022-09-13T06:47:10.198Z,0.4
2022-09-13T06:48:19.890Z,0.5
2022-09-13T06:49:28.644Z,0.4
2022-09-13T06:50:38.514Z,0.5
2022-09-13T06:51:48.201Z,0.5
2022-09-13T06:52:56.926Z,0.7
2022-09-13T06:54:04.676Z,0.4
2022-09-13T06:55:14.406Z,0.5
2022-09-13T06:56:22.147Z,0.6
2022-09-13T06:57:31.857Z,0.5
2022-09-13T06:58:41.566Z,0.4
2022-09-13T06:59:51.287Z,0.4
2022-09-13T07:01:01.165Z,0.4
2022-09-13T07:02:10.798Z,0.5
2022-09-13T07:03:20.564Z,0.2
2022-09-13T07:04:29.330Z,0.3
2022-09-13T07:05:38.998Z,0.4
2022-09-13T07:06:48.784Z,0.4
2022-09-13T07:07:58.674Z,0.4
2022-09-13T07:09:07.420Z,0.1
2022-09-13T07:10:17.162Z,0.3
2022-09-13T07:11:25.886Z,0.2
2022-09-13T07:12:35.612Z,0.3
2022-09-13T07:13:44.400Z,0.2
2022-09-13T07:14:51.165Z,0.4
2022-09-13T07:16:01.185Z,0.2
2022-09-13T07:17:10.957Z,0.1
2022-09-13T07:18:20.853Z,0.3
2022-09-13T07:19:30.701Z,0.3
2022-09-13T07:20:40.549Z,0.1
2022-09-13T07:21:50.451Z,0.2
2022-09-13T07:23:00.162Z,0.2
2022-09-13T07:24:08.849Z,0.2
2022-09-13T07:25:18.586Z,0.2
2022-09-13T07:26:27.375Z,0.2
2022-09-13T07:27:37.069Z,0.3
2022-09-13T07:28:46.873Z,0.1
2022-09-13T07:29:55.500Z,0.1
2022-09-13T07:31:04.310Z,0.1
2022-09-13T07:32:13.988Z,0.1
2022-09-13T07:33:22.635Z,0.2
2022-09-13T07:34:32.292Z,0.2
2022-09-13T07:35:41.015Z,0.2
2022-09-13T07:36:50.773Z,0.1
2022-09-13T07:38:00.523Z,0.3
2022-09-13T07:39:14.484Z,0.2
2022-09-13T07:40:21.050Z,0.2
2022-09-13T07:41:30.652Z,0.1
2022-09-13T07:42:39.403Z,0.1
2022-09-13T07:43:49.186Z,0.2
2022-09-13T07:44:58.879Z,0.2
2022-09-13T07:46:08.755Z,0.1
2022-09-13T07:47:18.419Z,0
2022-09-13T07:48:29.470Z,0
2022-09-13T07:49:37.822Z,0.2
2022-09-13T07:50:47.523Z,0.2
2022-09-13T07:51:56.249Z,0.1
2022-09-13T07:53:05.943Z,0.1
2022-09-13T07:54:14.708Z,0.2
2022-09-13T07:55:23.499Z,0.1
2022-09-13T07:56:33.281Z,0.3
2022-09-13T07:57:42.988Z,0.1
2022-09-13T07:58:52.776Z,0.1
2022-09-13T08:00:02.554Z,0.1
2022-09-13T08:01:11.307Z,0.1
2022-09-13T08:02:21.204Z,0.1
2022-09-13T08:03:29.735Z,0.2
2022-09-13T08:04:39.435Z,0.3
2022-09-13T08:05:49.302Z,0.3
2022-09-13T08:06:59.104Z,0
2022-09-13T08:08:08.774Z,0.1
2022-09-13T08:09:18.622Z,0.3
2022-09-13T08:10:27.342Z,0.1
2022-09-13T08:11:37.302Z,0.1
2022-09-13T08:12:46.999Z,0.1
2022-09-13T08:13:56.712Z,0.1
2022-09-13T08:15:06.469Z,0.1
2022-09-13T08:16:16.307Z,0.1
2022-09-13T08:17:26.052Z,0.2
2022-09-13T08:18:34.738Z,0
2022-09-13T08:19:42.429Z,0.2
2022-09-13T08:20:52.153Z,0
2022-09-13T08:22:00.837Z,0.2
2022-09-13T08:23:09.633Z,0.1
2022-09-13T08:24:19.338Z,0.1
2022-09-13T08:25:28.071Z,0.1
2022-09-13T08:26:37.812Z,0.2
2022-09-13T08:27:46.558Z,0.1
2022-09-13T08:28:56.295Z,0.1
2022-09-13T08:30:06.324Z,0.2
2022-09-13T08:31:15.132Z,0.1
2022-09-13T08:32:24.781Z,0.1
2022-09-13T08:33:33.634Z,0
2022-09-13T08:34:41.293Z,0.2
2022-09-13T08:35:51.006Z,0.1
2022-09-13T08:36:59.680Z,0.1
2022-09-13T08:38:09.378Z,0.1
2022-09-13T08:39:19.072Z,0.1
2022-09-13T08:40:27.811Z,0
2022-09-13T08:41:37.581Z,0.2
2022-09-13T08:42:47.323Z,0.2
2022-09-13T08:43:56.026Z,0.1
2022-09-13T08:45:05.736Z,0.1
2022-09-13T08:46:15.875Z,0.1
2022-09-13T08:47:23.551Z,0
2022-09-13T08:48:33.287Z,0.2
2022-09-13T08:49:42.080Z,0.1
2022-09-13T08:50:50.718Z,0.1
2022-09-13T08:51:59.566Z,0.1
2022-09-13T08:53:08.288Z,0.3
2022-09-13T08:54:18.018Z,0.1
2022-09-13T08:55:26.783Z,0.1
2022-09-13T08:56:36.528Z,0.2
2022-09-13T08:57:46.412Z,0.1
2022-09-13T08:58:55.124Z,0.1
2022-09-13T09:00:04.980Z,0.1
2022-09-13T09:01:12.734Z,0.2
2022-09-13T09:02:21.536Z,0.1
2022-09-13T09:03:31.322Z,0.1
2022-09-13T09:04:39.125Z,0.2
2022-09-13T09:05:49.125Z,0.2
2022-09-13T09:06:58.772Z,0
2022-09-13T09:08:07.810Z,0.1
2022-09-13T09:09:17.677Z,0.2
2022-09-13T09:10:26.579Z,0
2022-09-13T09:11:36.520Z,0.1
2022-09-13T09:12:46.438Z,0
2022-09-13T09:13:55.252Z,0.2
2022-09-13T09:15:05.221Z,0.3
2022-09-13T09:16:13.973Z,0.2
2022-09-13T09:17:23.650Z,0.1
2022-09-13T09:18:33.381Z,0.1
2022-09-13T09:19:41.131Z,0.1
2022-09-13T09:20:50.935Z,0
2022-09-13T09:22:00.826Z,0.1
2022-09-13T09:23:09.499Z,0
2022-09-13T09:24:21.980Z,0.1
2022-09-13T09:25:31.724Z,0.1
2022-09-13T09:26:40.624Z,0
2022-09-13T09:27:50.439Z,0.1
2022-09-13T09:29:00.280Z,0
2022-09-13T09:30:10.079Z,0.1
2022-09-13T09:31:19.880Z,0.1
2022-09-13T09:32:27.673Z,0.1
2022-09-13T09:33:37.474Z,0.1
2022-09-13T09:34:47.234Z,0.1
2022-09-13T09:35:56.981Z,0.1
2022-09-13T09:37:06.928Z,0.1
2022-09-13T09:38:15.596Z,0.4
2022-09-13T09:39:25.399Z,0.4
2022-09-13T09:40:35.287Z,0.6
2022-09-13T09:41:44.054Z,0.4
2022-09-13T09:42:52.767Z,0.1
2022-09-13T09:44:01.554Z,0.1
2022-09-13T09:45:11.409Z,0.2
2022-09-13T09:46:21.307Z,0.1
2022-09-13T09:47:30.988Z,0.4
2022-09-13T09:48:40.754Z,0.6
2022-09-13T09:49:49.563Z,0.6
2022-09-13T09:50:59.271Z,0.3
2022-09-13T09:52:09.057Z,0.2
2022-09-13T09:53:17.824Z,0.1
2022-09-13T09:54:27.547Z,0.1
2022-09-13T09:55:36.305Z,0.1
2022-09-13T09:56:46.030Z,0.1
2022-09-13T09:57:54.704Z,0.3
2022-09-13T09:59:03.650Z,0.3
2022-09-13T10:00:13.386Z,0.2
2022-09-13T10:01:23.308Z,0.1
2022-09-13T10:02:31.970Z,0.1
2022-09-13T10:03:41.740Z,0
2022-09-13T10:04:50.604Z,0.1
2022-09-13T10:06:00.423Z,0.1
2022-09-13T10:07:12.554Z,0.1
2022-09-13T10:08:18.153Z,0.2
2022-09-13T10:09:28.003Z,0.2
2022-09-13T10:10:36.722Z,0
2022-09-13T10:11:46.420Z,0
2022-09-13T10:12:56.228Z,0.2
2022-09-13T10:14:04.016Z,0.2
2022-09-13T10:15:13.786Z,0.2
2022-09-13T10:16:23.671Z,0.2
2022-09-13T10:17:31.636Z,0.1
2022-09-13T10:18:53.492Z,0.1
2022-09-13T10:19:51.277Z,0.1
2022-09-13T10:20:59.959Z,0.1
2022-09-13T10:22:09.762Z,0.3
2022-09-13T10:23:18.633Z,0
2022-09-13T10:24:28.337Z,0.1
2022-09-13T10:25:38.080Z,0
2022-09-13T10:26:49.741Z,0.1
2022-09-13T10:27:59.495Z,0.1
2022-09-13T10:29:07.208Z,0.1
2022-09-13T10:30:16.030Z,0.1
2022-09-13T10:31:26.161Z,0.2
2022-09-13T10:32:34.606Z,0.1
2022-09-13T10:33:44.438Z,0
2022-09-13T10:34:54.281Z,0
2022-09-13T10:36:01.982Z,0.2
2022-09-13T10:37:11.947Z,0.1
2022-09-13T10:38:20.705Z,0
2022-09-13T10:39:30.616Z,0.1
2022-09-13T10:40:40.392Z,0.1
2022-09-13T10:41:49.157Z,0.1
2022-09-13T10:42:58.980Z,0.1
2022-09-13T10:44:09.798Z,0
2022-09-13T10:45:17.623Z,0.1
2022-09-13T10:46:27.406Z,0.1
2022-09-13T10:47:36.482Z,0
2022-09-13T10:48:45.205Z,0
2022-09-13T10:49:55.519Z,0.1
2022-09-13T10:51:05.634Z,0.1
2022-09-13T10:52:15.321Z,0.1
2022-09-13T10:53:23.301Z,0.1
2022-09-13T10:54:33.036Z,0
2022-09-13T10:55:44.162Z,0.2
2022-09-13T10:56:53.785Z,0.1
2022-09-13T10:58:03.593Z,0.1
2022-09-13T10:59:12.497Z,0
2022-09-13T11:00:22.330Z,0.2
2022-09-13T11:01:33.405Z,0.1
2022-09-13T11:02:41.856Z,0.1
2022-09-13T11:03:51.644Z,0.1
2022-09-13T11:05:01.408Z,0.1
2022-09-13T11:06:10.133Z,0
2022-09-13T11:07:19.877Z,0
2022-09-13T11:08:27.598Z,0.2
2022-09-13T11:09:37.382Z,0
2022-09-13T11:10:47.180Z,0.1
2022-09-13T11:11:55.849Z,0
2022-09-13T11:13:05.756Z,0.1
2022-09-13T11:14:15.548Z,0.1
2022-09-13T11:15:23.257Z,0
2022-09-13T11:16:33.100Z,0.1
2022-09-13T11:17:44.522Z,0.1
2022-09-13T11:18:54.267Z,0.2
2022-09-13T11:20:05.058Z,0
2022-09-13T11:21:13.976Z,0
2022-09-13T11:22:23.831Z,0
2022-09-13T11:23:32.591Z,0.1
2022-09-13T11:24:41.431Z,0.1
2022-09-13T11:25:52.151Z,0.1
2022-09-13T11:26:59.812Z,0.1
2022-09-13T11:28:09.622Z,0
2022-09-13T11:29:19.369Z,0.2
2022-09-13T11:30:30.104Z,0.1
2022-09-13T11:31:39.946Z,0.1
2022-09-13T11:32:49.676Z,0.1
2022-09-13T11:33:59.408Z,0
2022-09-13T11:35:12.168Z,0.1
2022-09-13T11:36:20.943Z,0.1
2022-09-13T11:37:29.647Z,0
2022-09-13T11:38:39.477Z,0.1
2022-09-13T11:39:47.242Z,0.1
2022-09-13T11:40:57.048Z,0.1
2022-09-13T11:42:06.637Z,0.1
2022-09-13T11:43:14.352Z,0.1
2022-09-13T11:44:24.190Z,0.1
2022-09-13T11:45:33.994Z,0.1
2022-09-13T11:46:42.749Z,0
2022-09-13T11:47:52.645Z,0.2
2022-09-13T11:49:01.427Z,0.2
2022-09-13T11:50:11.163Z,0
2022-09-13T11:51:19.915Z,0.1
2022-09-13T11:52:28.704Z,0.1
2022-09-13T11:53:38.412Z,0.1
2022-09-13T11:54:47.153Z,0.2
2022-09-13T11:55:55.895Z,0.1
2022-09-13T11:57:05.839Z,0.1
2022-09-13T11:58:15.517Z,0.1
2022-09-13T11:59:25.301Z,0.1
2022-09-13T12:00:34.136Z,0.1
2022-09-13T12:01:42.902Z,0.1
2022-09-13T12:02:52.786Z,0
2022-09-13T12:04:02.392Z,0.1
2022-09-13T12:05:21.935Z,0
2022-09-13T12:06:22.879Z,0.2
2022-09-13T12:07:30.713Z,0.1
2022-09-13T12:08:40.509Z,0
2022-09-13T12:09:50.311Z,0.3
2022-09-13T12:10:59.974Z,0.1
2022-09-13T12:12:10.705Z,0.1
2022-09-13T12:13:19.727Z,0.1
2022-09-13T12:14:27.547Z,0
2022-09-13T12:15:37.365Z,0.3
2022-09-13T12:16:46.171Z,0.1
2022-09-13T12:17:54.845Z,0.2
2022-09-13T12:19:04.650Z,0
2022-09-13T12:20:14.447Z,0.1
2022-09-13T12:21:24.168Z,0.1
2022-09-13T12:22:33.856Z,0
2022-09-13T12:23:42.730Z,0.2
2022-09-13T12:24:52.391Z,0
2022-09-13T12:26:01.323Z,0.1
2022-09-13T12:27:11.166Z,0.1
2022-09-13T12:28:21.159Z,0.2
2022-09-13T12:29:29.745Z,0.2
2022-09-13T12:30:38.511Z,0
2022-09-13T12:31:48.304Z,0.1
2022-09-13T12:33:00.808Z,0.1
2022-09-13T12:34:10.523Z,0
2022-09-13T12:35:19.307Z,0.1
2022-09-13T12:36:29.054Z,0
2022-09-13T12:37:38.773Z,0.1
2022-09-13T12:38:48.606Z,0.1
2022-09-13T12:39:58.445Z,0.1
2022-09-13T12:41:07.067Z,0
2022-09-13T12:42:23.966Z,0
2022-09-13T12:43:33.780Z,0
2022-09-13T12:44:41.478Z,0.1
2022-09-13T12:45:50.224Z,0
2022-09-13T12:46:59.944Z,0
2022-09-13T12:48:08.697Z,0
2022-09-13T12:49:18.513Z,0
2022-09-13T12:50:42.657Z,0.1
2022-09-13T12:51:39.527Z,0.1
2022-09-13T12:52:48.318Z,0.1
2022-09-13T12:53:55.996Z,0.1
2022-09-13T12:55:05.761Z,0.2
2022-09-13T12:56:15.567Z,0.1
2022-09-13T12:57:25.570Z,0
2022-09-13T12:58:35.321Z,0.1
2022-09-13T12:59:45.195Z,0.1
2022-09-13T13:00:54.890Z,0.1
2022-09-13T13:02:04.518Z,0
2022-09-13T13:03:13.432Z,0
2022-09-13T13:04:23.203Z,0
2022-09-13T13:05:32.998Z,0.2
2022-09-13T13:06:41.753Z,0
2022-09-13T13:07:51.480Z,0
2022-09-13T13:09:00.192Z,0.1
2022-09-13T13:10:09.926Z,0
2022-09-13T13:11:18.650Z,0
2022-09-13T13:12:27.384Z,0.1
2022-09-13T13:13:37.160Z,0
2022-09-13T13:14:45.929Z,0.1
2022-09-13T13:15:54.822Z,0.1
2022-09-13T13:17:04.472Z,0
2022-09-13T13:18:13.608Z,0.1
2022-09-13T13:19:22.352Z,0.1
2022-09-13T13:20:32.321Z,0
2022-09-13T13:21:41.539Z,0
2022-09-13T13:22:53.258Z,0.1
2022-09-13T13:24:00.940Z,0.1
2022-09-13T13:25:11.514Z,0.1
2022-09-13T13:26:21.272Z,0.1
2022-09-13T13:27:30.427Z,0
2022-09-13T13:28:40.161Z,0
2022-09-13T13:29:50.038Z,0
2022-09-13T13:30:58.945Z,0
2022-09-13T13:32:08.656Z,0.1
2022-09-13T13:33:17.431Z,0.1
2022-09-13T13:34:26.171Z,0.3
2022-09-13T13:35:42.780Z,0.1
2022-09-13T13:36:59.957Z,0
2022-09-13T13:38:03.564Z,0
2022-09-13T13:39:13.606Z,0
2022-09-13T13:40:22.467Z,0
2022-09-13T13:41:32.377Z,0.2
2022-09-13T13:42:41.147Z,0
2022-09-13T13:43:49.904Z,0.1
2022-09-13T13:45:00.187Z,0.1
2022-09-13T13:46:08.145Z,0
2022-09-13T13:47:17.769Z,0.1
2022-09-13T13:48:27.464Z,0
2022-09-13T13:49:37.205Z,0.1
2022-09-13T13:50:46.978Z,0.1
2022-09-13T13:51:55.717Z,0.1
2022-09-13T13:53:05.451Z,0.1
2022-09-13T13:55:26.928Z,0.1
2022-09-13T13:56:36.676Z,0.1
2022-09-13T13:57:46.427Z,0
2022-09-13T13:58:56.250Z,0.1
2022-09-13T14:00:06.014Z,0.1
2022-09-13T14:01:13.959Z,0
2022-09-13T14:02:22.660Z,0.1
2022-09-13T14:03:32.601Z,0.1
2022-09-13T14:04:41.436Z,0
2022-09-13T14:05:51.183Z,0
2022-09-13T14:07:03.125Z,0
2022-09-13T14:08:10.640Z,0
2022-09-13T14:09:20.382Z,0
2022-09-13T14:10:30.241Z,0
2022-09-13T14:11:39.986Z,0.2
2022-09-13T14:12:49.726Z,0
2022-09-13T14:13:57.575Z,0
2022-09-13T14:15:08.129Z,0.1
2022-09-13T14:16:17.979Z,0.1
2022-09-13T14:17:26.869Z,0
2022-09-13T14:18:36.628Z,0
2022-09-13T14:19:44.369Z,0
2022-09-13T14:20:54.188Z,0
2022-09-13T14:22:04.041Z,0.1
2022-09-13T14:23:12.758Z,0
2022-09-13T14:24:22.540Z,0.1
2022-09-13T14:25:31.284Z,0
2022-09-13T14:26:40.206Z,0.1
2022-09-13T14:27:49.936Z,0
2022-09-13T14:28:58.823Z,0.1
2022-09-13T14:30:07.723Z,0.1
2022-09-13T14:31:17.934Z,0.1
2022-09-13T14:32:29.025Z,0.1
2022-09-13T14:33:37.655Z,0
2022-09-13T14:34:46.671Z,0
2022-09-13T14:35:55.467Z,0
2022-09-13T14:37:05.357Z,0.2
2022-09-13T14:38:13.349Z,0.2
2022-09-13T14:39:23.186Z,0.2
2022-09-13T14:40:33.026Z,0
2022-09-13T14:41:42.121Z,0
2022-09-13T14:42:52.189Z,0
2022-09-13T14:44:02.130Z,0
2022-09-13T14:45:11.062Z,0.1
2022-09-13T14:46:21.923Z,0
2022-09-13T14:47:28.795Z,0
2022-09-13T14:48:38.648Z,0.2
2022-09-13T14:49:49.239Z,0
2022-09-13T14:50:57.331Z,0.2
2022-09-13T14:52:07.190Z,0
2022-09-13T14:53:17.150Z,0
2022-09-13T14:54:27.008Z,0
2022-09-13T14:55:36.726Z,0
2022-09-13T14:56:44.676Z,0.1
2022-09-13T14:57:54.453Z,0
2022-09-13T14:59:03.242Z,0.1
2022-09-13T15:00:13.046Z,0
2022-09-13T15:01:23.013Z,0.1
2022-09-13T15:02:30.918Z,0
2022-09-13T15:03:40.834Z,0
2022-09-13T15:04:50.962Z,0.1
2022-09-13T15:05:59.744Z,0.1
2022-09-13T15:07:09.634Z,0.1
2022-09-13T15:08:17.877Z,0.2
2022-09-13T15:09:27.326Z,0
2022-09-13T15:10:37.137Z,0
2022-09-13T15:11:47.042Z,0.1
2022-09-13T15:12:56.866Z,0.1
2022-09-13T15:14:06.754Z,0.1
2022-09-13T15:15:15.557Z,0.2
2022-09-13T15:16:25.648Z,0.1
2022-09-13T15:17:35.575Z,0
2022-09-13T15:18:44.434Z,0.1
2022-09-13T15:19:54.265Z,0.1
2022-09-13T15:21:03.118Z,0.2
2022-09-13T15:22:13.063Z,0.2
2022-09-13T15:23:22.868Z,0
2022-09-13T15:24:31.711Z,0
2022-09-13T15:25:41.503Z,0.3
2022-09-13T15:26:51.373Z,0.1
2022-09-13T15:28:01.176Z,0.1
2022-09-13T15:29:10.976Z,0.2
2022-09-13T15:30:19.755Z,0.1
2022-09-13T15:31:29.754Z,0.2
2022-09-13T15:32:39.520Z,0
2022-09-13T15:33:49.858Z,0.1
2022-09-13T15:34:59.195Z,0.2
2022-09-13T15:36:09.122Z,0
2022-09-13T15:37:18.915Z,0
2022-09-13T15:38:27.666Z,0.1
2022-09-13T15:39:37.475Z,0.1
2022-09-13T15:40:47.282Z,0
2022-09-13T15:41:56.044Z,0.1
2022-09-13T15:43:04.830Z,0.1
2022-09-13T15:44:14.657Z,0.1
2022-09-13T15:45:22.461Z,0
2022-09-13T15:46:32.304Z,0
2022-09-13T15:47:42.084Z,0
2022-09-13T15:48:52.351Z,0
2022-09-13T15:50:02.231Z,0
2022-09-13T15:51:13.003Z,0.1
2022-09-13T15:52:20.770Z,0.1
2022-09-13T15:53:30.657Z,0.1
2022-09-13T15:54:40.674Z,0
2022-09-13T15:55:49.433Z,0.2
2022-09-13T15:56:59.210Z,0.1
2022-09-13T15:58:07.922Z,0
2022-09-13T15:59:18.422Z,0.1
2022-09-13T16:00:26.863Z,0.1
2022-09-13T16:01:35.780Z,0.1
2022-09-13T16:02:45.573Z,0.2
2022-09-13T16:04:04.775Z,0.1
2022-09-13T16:05:13.184Z,0.2
2022-09-13T16:06:24.770Z,0
2022-09-13T16:07:35.484Z,0.1
2022-09-13T16:08:45.281Z,0
2022-09-13T16:09:55.138Z,0.2
2022-09-13T16:11:07.656Z,0.1
2022-09-13T16:12:16.551Z,0